sensor_id;sensor_type;location;lat;lon;timestamp;P1;durP1;ratioP1;P2;durP2;ratioP2
55212;SDS011;41083;52.932;6.674;2022-10-16T00:01:25;1.38;;;0.70;;
55212;SDS011;41083;52.932;6.674;2022-10-16T00:03:52;1.27;;;0.70;;
55212;SDS011;41083;52.932;6.674;2022-10-16T00:06:19;4.13;;;0.65;;
55212;SDS011;41083;52.932;6.674;2022-10-16T00:08:46;2.35;;;0.80;;
55212;SDS011;41083;52.932;6.674;2022-10-16T00:11:13;1.55;;;0.63;;
55212;SDS011;41083;52.932;6.674;2022-10-16T00:13:40;2.08;;;0.63;;
55212;SDS011;41083;52.932;6.674;2022-10-16T00:16:07;1.45;;;0.55;;
55212;SDS011;41083;52.932;6.674;2022-10-16T00:18:34;0.50;;;0.30;;
55212;SDS011;41083;52.932;6.674;2022-10-16T00:21:19;1.75;;;0.55;;
55212;SDS011;41083;52.932;6.674;2022-10-16T00:24:01;1.55;;;0.57;;
55212;SDS011;41083;52.932;6.674;2022-10-16T00:26:30;1.58;;;0.70;;
55212;SDS011;41083;52.932;6.674;2022-10-16T00:28:57;1.67;;;0.60;;
55212;SDS011;41083;52.932;6.674;2022-10-16T00:31:23;0.82;;;0.40;;
55212;SDS011;41083;52.932;6.674;2022-10-16T00:33:49;0.80;;;0.55;;
55212;SDS011;41083;52.932;6.674;2022-10-16T00:36:17;5.13;;;1.40;;
55212;SDS011;41083;52.932;6.674;2022-10-16T00:38:44;1.25;;;0.47;;
55212;SDS011;41083;52.932;6.674;2022-10-16T00:41:12;1.08;;;0.63;;
55212;SDS011;41083;52.932;6.674;2022-10-16T00:43:44;1.35;;;0.50;;
55212;SDS011;41083;52.932;6.674;2022-10-16T00:46:16;1.38;;;0.63;;
55212;SDS011;41083;52.932;6.674;2022-10-16T00:48:50;1.77;;;0.77;;
55212;SDS011;41083;52.932;6.674;2022-10-16T00:51:49;1.42;;;0.73;;
55212;SDS011;41083;52.932;6.674;2022-10-16T00:54:25;1.05;;;0.55;;
55212;SDS011;41083;52.932;6.674;2022-10-16T00:56:53;0.63;;;0.45;;
55212;SDS011;41083;52.932;6.674;2022-10-16T00:59:22;2.22;;;0.77;;
55212;SDS011;41083;52.932;6.674;2022-10-16T01:01:50;2.38;;;0.77;;
55212;SDS011;41083;52.932;6.674;2022-10-16T01:04:16;1.40;;;0.40;;
55212;SDS011;41083;52.932;6.674;2022-10-16T01:09:34;0.93;;;0.32;;
55212;SDS011;41083;52.932;6.674;2022-10-16T01:12:09;2.08;;;0.90;;
55212;SDS011;41083;52.932;6.674;2022-10-16T01:14:48;1.80;;;0.70;;
55212;SDS011;41083;52.932;6.674;2022-10-16T01:17:30;2.10;;;0.63;;
55212;SDS011;41083;52.932;6.674;2022-10-16T01:20:10;0.77;;;0.47;;
55212;SDS011;41083;52.932;6.674;2022-10-16T01:23:05;5.82;;;0.95;;
55212;SDS011;41083;52.932;6.674;2022-10-16T01:31:22;3.70;;;0.80;;
55212;SDS011;41083;52.932;6.674;2022-10-16T01:33:53;1.17;;;0.65;;
55212;SDS011;41083;52.932;6.674;2022-10-16T01:36:29;0.73;;;0.30;;
55212;SDS011;41083;52.932;6.674;2022-10-16T01:39:02;2.85;;;0.77;;
55212;SDS011;41083;52.932;6.674;2022-10-16T01:41:31;1.50;;;0.70;;
55212;SDS011;41083;52.932;6.674;2022-10-16T01:46:28;2.28;;;0.77;;
55212;SDS011;41083;52.932;6.674;2022-10-16T01:48:57;1.50;;;0.82;;
55212;SDS011;41083;52.932;6.674;2022-10-16T01:51:24;1.65;;;0.65;;
55212;SDS011;41083;52.932;6.674;2022-10-16T01:53:55;1.95;;;0.73;;
55212;SDS011;41083;52.932;6.674;2022-10-16T01:56:23;1.10;;;0.60;;
55212;SDS011;41083;52.932;6.674;2022-10-16T01:58:52;1.67;;;0.57;;
55212;SDS011;41083;52.932;6.674;2022-10-16T02:01:26;1.10;;;0.70;;
55212;SDS011;41083;52.932;6.674;2022-10-16T02:03:55;3.25;;;0.77;;
55212;SDS011;41083;52.932;6.674;2022-10-16T02:06:24;1.23;;;0.77;;
55212;SDS011;41083;52.932;6.674;2022-10-16T02:08:50;0.93;;;0.50;;
55212;SDS011;41083;52.932;6.674;2022-10-16T02:11:16;2.08;;;0.70;;
55212;SDS011;41083;52.932;6.674;2022-10-16T02:13:44;2.60;;;0.60;;
55212;SDS011;41083;52.932;6.674;2022-10-16T02:16:13;1.42;;;0.50;;
55212;SDS011;41083;52.932;6.674;2022-10-16T02:18:39;1.25;;;0.68;;
55212;SDS011;41083;52.932;6.674;2022-10-16T02:29:35;1.38;;;0.57;;
55212;SDS011;41083;52.932;6.674;2022-10-16T02:32:05;1.20;;;0.65;;
55212;SDS011;41083;52.932;6.674;2022-10-16T02:34:33;1.00;;;0.60;;
55212;SDS011;41083;52.932;6.674;2022-10-16T02:37:02;2.10;;;0.93;;
55212;SDS011;41083;52.932;6.674;2022-10-16T02:39:30;1.23;;;0.65;;
55212;SDS011;41083;52.932;6.674;2022-10-16T02:41:56;0.88;;;0.50;;
55212;SDS011;41083;52.932;6.674;2022-10-16T02:44:22;1.40;;;0.80;;
55212;SDS011;41083;52.932;6.674;2022-10-16T02:46:47;2.47;;;0.85;;
55212;SDS011;41083;52.932;6.674;2022-10-16T02:49:13;1.52;;;0.73;;
55212;SDS011;41083;52.932;6.674;2022-10-16T02:51:38;2.60;;;1.17;;
55212;SDS011;41083;52.932;6.674;2022-10-16T02:54:04;1.35;;;0.95;;
55212;SDS011;41083;52.932;6.674;2022-10-16T02:56:30;1.73;;;0.93;;
55212;SDS011;41083;52.932;6.674;2022-10-16T02:58:56;3.75;;;0.73;;
55212;SDS011;41083;52.932;6.674;2022-10-16T03:01:22;2.45;;;1.05;;
55212;SDS011;41083;52.932;6.674;2022-10-16T03:03:48;1.30;;;0.80;;
55212;SDS011;41083;52.932;6.674;2022-10-16T03:06:14;1.75;;;0.80;;
55212;SDS011;41083;52.932;6.674;2022-10-16T03:08:40;0.70;;;0.47;;
55212;SDS011;41083;52.932;6.674;2022-10-16T03:11:05;7.20;;;0.98;;
55212;SDS011;41083;52.932;6.674;2022-10-16T03:13:31;1.98;;;0.75;;
55212;SDS011;41083;52.932;6.674;2022-10-16T03:15:57;1.27;;;0.65;;
55212;SDS011;41083;52.932;6.674;2022-10-16T03:18:22;2.55;;;0.80;;
55212;SDS011;41083;52.932;6.674;2022-10-16T03:20:48;1.77;;;0.65;;
55212;SDS011;41083;52.932;6.674;2022-10-16T03:23:13;1.30;;;0.70;;
55212;SDS011;41083;52.932;6.674;2022-10-16T03:25:39;1.90;;;0.85;;
55212;SDS011;41083;52.932;6.674;2022-10-16T03:28:05;1.13;;;0.70;;
55212;SDS011;41083;52.932;6.674;2022-10-16T03:30:31;0.80;;;0.60;;
55212;SDS011;41083;52.932;6.674;2022-10-16T03:32:56;3.15;;;0.60;;
55212;SDS011;41083;52.932;6.674;2022-10-16T03:35:22;1.52;;;0.77;;
55212;SDS011;41083;52.932;6.674;2022-10-16T03:37:49;1.90;;;0.68;;
55212;SDS011;41083;52.932;6.674;2022-10-16T03:40:15;1.10;;;0.65;;
55212;SDS011;41083;52.932;6.674;2022-10-16T03:42:44;1.20;;;0.70;;
55212;SDS011;41083;52.932;6.674;2022-10-16T03:45:10;1.30;;;0.73;;
55212;SDS011;41083;52.932;6.674;2022-10-16T03:47:36;1.23;;;0.50;;
55212;SDS011;41083;52.932;6.674;2022-10-16T03:50:02;1.02;;;0.40;;
55212;SDS011;41083;52.932;6.674;2022-10-16T03:52:29;1.65;;;0.70;;
55212;SDS011;41083;52.932;6.674;2022-10-16T03:54:54;2.60;;;0.73;;
55212;SDS011;41083;52.932;6.674;2022-10-16T03:57:20;2.88;;;0.90;;
55212;SDS011;41083;52.932;6.674;2022-10-16T03:59:46;1.98;;;0.50;;
55212;SDS011;41083;52.932;6.674;2022-10-16T04:02:12;1.50;;;0.60;;
55212;SDS011;41083;52.932;6.674;2022-10-16T04:04:38;1.83;;;0.68;;
55212;SDS011;41083;52.932;6.674;2022-10-16T04:07:03;1.17;;;0.65;;
55212;SDS011;41083;52.932;6.674;2022-10-16T04:09:29;3.50;;;0.95;;
55212;SDS011;41083;52.932;6.674;2022-10-16T04:11:54;1.33;;;0.80;;
55212;SDS011;41083;52.932;6.674;2022-10-16T04:14:20;1.42;;;0.75;;
55212;SDS011;41083;52.932;6.674;2022-10-16T04:16:45;1.92;;;0.77;;
55212;SDS011;41083;52.932;6.674;2022-10-16T04:19:11;1.30;;;0.65;;
55212;SDS011;41083;52.932;6.674;2022-10-16T04:21:37;1.20;;;0.70;;
55212;SDS011;41083;52.932;6.674;2022-10-16T04:24:03;2.17;;;0.80;;
55212;SDS011;41083;52.932;6.674;2022-10-16T04:26:28;0.80;;;0.60;;
55212;SDS011;41083;52.932;6.674;2022-10-16T04:28:54;2.13;;;1.05;;
55212;SDS011;41083;52.932;6.674;2022-10-16T04:31:20;4.47;;;1.08;;
55212;SDS011;41083;52.932;6.674;2022-10-16T04:33:46;2.08;;;1.05;;
55212;SDS011;41083;52.932;6.674;2022-10-16T04:36:12;1.23;;;0.80;;
55212;SDS011;41083;52.932;6.674;2022-10-16T04:38:37;1.90;;;0.90;;
55212;SDS011;41083;52.932;6.674;2022-10-16T04:41:04;2.03;;;0.93;;
55212;SDS011;41083;52.932;6.674;2022-10-16T04:43:33;2.28;;;1.10;;
55212;SDS011;41083;52.932;6.674;2022-10-16T04:45:58;0.73;;;0.40;;
55212;SDS011;41083;52.932;6.674;2022-10-16T04:48:24;1.55;;;0.50;;
55212;SDS011;41083;52.932;6.674;2022-10-16T04:50:50;1.15;;;0.60;;
55212;SDS011;41083;52.932;6.674;2022-10-16T04:53:15;2.58;;;1.00;;
55212;SDS011;41083;52.932;6.674;2022-10-16T04:55:42;1.30;;;1.00;;
55212;SDS011;41083;52.932;6.674;2022-10-16T04:58:08;1.90;;;0.88;;
55212;SDS011;41083;52.932;6.674;2022-10-16T05:00:34;2.42;;;1.10;;
55212;SDS011;41083;52.932;6.674;2022-10-16T05:03:00;1.52;;;0.65;;
55212;SDS011;41083;52.932;6.674;2022-10-16T05:05:26;1.60;;;0.82;;
55212;SDS011;41083;52.932;6.674;2022-10-16T05:07:53;3.30;;;0.90;;
55212;SDS011;41083;52.932;6.674;2022-10-16T05:10:18;2.20;;;1.13;;
55212;SDS011;41083;52.932;6.674;2022-10-16T05:12:44;2.60;;;1.10;;
55212;SDS011;41083;52.932;6.674;2022-10-16T05:15:10;9.65;;;1.13;;
55212;SDS011;41083;52.932;6.674;2022-10-16T05:17:36;2.22;;;0.93;;
55212;SDS011;41083;52.932;6.674;2022-10-16T05:20:01;2.20;;;0.90;;
55212;SDS011;41083;52.932;6.674;2022-10-16T05:22:28;1.83;;;0.88;;
55212;SDS011;41083;52.932;6.674;2022-10-16T05:24:53;1.58;;;0.90;;
55212;SDS011;41083;52.932;6.674;2022-10-16T05:27:19;1.38;;;0.60;;
55212;SDS011;41083;52.932;6.674;2022-10-16T05:29:45;2.00;;;0.85;;
55212;SDS011;41083;52.932;6.674;2022-10-16T05:32:12;1.77;;;0.90;;
55212;SDS011;41083;52.932;6.674;2022-10-16T05:34:38;2.22;;;0.90;;
55212;SDS011;41083;52.932;6.674;2022-10-16T05:37:04;3.47;;;0.80;;
55212;SDS011;41083;52.932;6.674;2022-10-16T05:39:30;1.65;;;0.90;;
55212;SDS011;41083;52.932;6.674;2022-10-16T05:41:55;1.40;;;1.08;;
55212;SDS011;41083;52.932;6.674;2022-10-16T05:44:21;2.40;;;1.17;;
55212;SDS011;41083;52.932;6.674;2022-10-16T05:46:47;1.75;;;0.85;;
55212;SDS011;41083;52.932;6.674;2022-10-16T05:49:12;5.70;;;0.80;;
55212;SDS011;41083;52.932;6.674;2022-10-16T05:51:38;1.90;;;0.93;;
55212;SDS011;41083;52.932;6.674;2022-10-16T05:54:03;3.50;;;0.95;;
55212;SDS011;41083;52.932;6.674;2022-10-16T05:56:29;2.58;;;0.95;;
55212;SDS011;41083;52.932;6.674;2022-10-16T05:58:55;2.08;;;1.27;;
55212;SDS011;41083;52.932;6.674;2022-10-16T06:01:20;4.20;;;0.88;;
55212;SDS011;41083;52.932;6.674;2022-10-16T06:03:49;1.67;;;1.00;;
55212;SDS011;41083;52.932;6.674;2022-10-16T06:06:26;3.00;;;0.70;;
55212;SDS011;41083;52.932;6.674;2022-10-16T06:08:53;2.45;;;0.95;;
55212;SDS011;41083;52.932;6.674;2022-10-16T06:11:21;2.03;;;0.75;;
55212;SDS011;41083;52.932;6.674;2022-10-16T06:13:52;1.15;;;0.55;;
55212;SDS011;41083;52.932;6.674;2022-10-16T06:16:19;1.08;;;0.60;;
55212;SDS011;41083;52.932;6.674;2022-10-16T06:18:45;2.97;;;0.80;;
55212;SDS011;41083;52.932;6.674;2022-10-16T06:21:13;1.42;;;0.85;;
55212;SDS011;41083;52.932;6.674;2022-10-16T06:23:41;2.28;;;1.15;;
55212;SDS011;41083;52.932;6.674;2022-10-16T06:26:07;1.92;;;1.00;;
55212;SDS011;41083;52.932;6.674;2022-10-16T06:28:34;2.00;;;1.00;;
55212;SDS011;41083;52.932;6.674;2022-10-16T06:31:00;2.40;;;0.80;;
55212;SDS011;41083;52.932;6.674;2022-10-16T06:33:27;2.95;;;0.90;;
55212;SDS011;41083;52.932;6.674;2022-10-16T06:35:53;2.88;;;0.73;;
55212;SDS011;41083;52.932;6.674;2022-10-16T06:38:18;1.95;;;1.10;;
55212;SDS011;41083;52.932;6.674;2022-10-16T06:40:44;1.23;;;0.60;;
55212;SDS011;41083;52.932;6.674;2022-10-16T06:43:10;3.72;;;1.10;;
55212;SDS011;41083;52.932;6.674;2022-10-16T06:45:35;1.92;;;1.00;;
55212;SDS011;41083;52.932;6.674;2022-10-16T06:48:01;0.85;;;0.55;;
55212;SDS011;41083;52.932;6.674;2022-10-16T06:50:26;1.23;;;0.70;;
55212;SDS011;41083;52.932;6.674;2022-10-16T06:52:52;1.63;;;0.60;;
55212;SDS011;41083;52.932;6.674;2022-10-16T06:55:17;1.48;;;1.00;;
55212;SDS011;41083;52.932;6.674;2022-10-16T06:57:43;6.60;;;0.82;;
55212;SDS011;41083;52.932;6.674;2022-10-16T07:00:11;1.27;;;0.60;;
55212;SDS011;41083;52.932;6.674;2022-10-16T07:02:37;1.33;;;0.70;;
55212;SDS011;41083;52.932;6.674;2022-10-16T07:05:03;0.88;;;0.57;;
55212;SDS011;41083;52.932;6.674;2022-10-16T07:07:29;1.25;;;0.50;;
55212;SDS011;41083;52.932;6.674;2022-10-16T07:09:54;2.25;;;0.80;;
55212;SDS011;41083;52.932;6.674;2022-10-16T07:12:20;1.30;;;0.95;;
55212;SDS011;41083;52.932;6.674;2022-10-16T07:14:45;3.03;;;0.90;;
55212;SDS011;41083;52.932;6.674;2022-10-16T07:17:11;1.08;;;0.70;;
55212;SDS011;41083;52.932;6.674;2022-10-16T07:19:37;1.40;;;0.80;;
55212;SDS011;41083;52.932;6.674;2022-10-16T07:22:02;2.85;;;0.68;;
55212;SDS011;41083;52.932;6.674;2022-10-16T07:24:28;4.75;;;0.77;;
55212;SDS011;41083;52.932;6.674;2022-10-16T07:26:54;1.42;;;0.60;;
55212;SDS011;41083;52.932;6.674;2022-10-16T07:29:20;2.38;;;0.60;;
55212;SDS011;41083;52.932;6.674;2022-10-16T07:31:47;1.95;;;0.60;;
55212;SDS011;41083;52.932;6.674;2022-10-16T07:34:14;1.05;;;0.50;;
55212;SDS011;41083;52.932;6.674;2022-10-16T07:36:41;0.93;;;0.50;;
55212;SDS011;41083;52.932;6.674;2022-10-16T07:39:07;2.55;;;0.70;;
55212;SDS011;41083;52.932;6.674;2022-10-16T07:41:33;1.35;;;0.60;;
55212;SDS011;41083;52.932;6.674;2022-10-16T07:44:02;1.90;;;0.70;;
55212;SDS011;41083;52.932;6.674;2022-10-16T07:46:28;2.00;;;0.90;;
55212;SDS011;41083;52.932;6.674;2022-10-16T07:48:54;1.05;;;0.60;;
55212;SDS011;41083;52.932;6.674;2022-10-16T07:51:23;3.42;;;0.77;;
55212;SDS011;41083;52.932;6.674;2022-10-16T07:53:50;0.93;;;0.52;;
55212;SDS011;41083;52.932;6.674;2022-10-16T07:56:16;1.33;;;0.57;;
55212;SDS011;41083;52.932;6.674;2022-10-16T07:58:43;1.77;;;0.55;;
55212;SDS011;41083;52.932;6.674;2022-10-16T08:01:10;2.10;;;0.57;;
55212;SDS011;41083;52.932;6.674;2022-10-16T08:03:38;3.55;;;0.70;;
55212;SDS011;41083;52.932;6.674;2022-10-16T08:06:06;0.65;;;0.35;;
55212;SDS011;41083;52.932;6.674;2022-10-16T08:08:32;1.33;;;0.43;;
55212;SDS011;41083;52.932;6.674;2022-10-16T08:10:58;1.88;;;0.63;;
55212;SDS011;41083;52.932;6.674;2022-10-16T08:13:24;3.90;;;0.50;;
55212;SDS011;41083;52.932;6.674;2022-10-16T08:15:51;2.47;;;0.40;;
55212;SDS011;41083;52.932;6.674;2022-10-16T08:18:18;5.45;;;0.70;;
55212;SDS011;41083;52.932;6.674;2022-10-16T08:20:44;1.27;;;0.40;;
55212;SDS011;41083;52.932;6.674;2022-10-16T08:23:10;1.45;;;0.50;;
55212;SDS011;41083;52.932;6.674;2022-10-16T08:25:37;0.80;;;0.38;;
55212;SDS011;41083;52.932;6.674;2022-10-16T08:28:04;0.40;;;0.20;;
55212;SDS011;41083;52.932;6.674;2022-10-16T08:30:34;0.70;;;0.30;;
55212;SDS011;41083;52.932;6.674;2022-10-16T08:33:00;2.65;;;0.47;;
55212;SDS011;41083;52.932;6.674;2022-10-16T08:35:26;1.95;;;0.43;;
55212;SDS011;41083;52.932;6.674;2022-10-16T08:37:52;3.25;;;0.55;;
55212;SDS011;41083;52.932;6.674;2022-10-16T08:40:28;0.55;;;0.25;;
55212;SDS011;41083;52.932;6.674;2022-10-16T08:43:08;2.22;;;0.30;;
55212;SDS011;41083;52.932;6.674;2022-10-16T08:45:45;0.65;;;0.32;;
55212;SDS011;41083;52.932;6.674;2022-10-16T08:48:45;1.63;;;0.50;;
55212;SDS011;41083;52.932;6.674;2022-10-16T08:51:19;1.05;;;0.43;;
55212;SDS011;41083;52.932;6.674;2022-10-16T08:53:52;0.73;;;0.32;;
55212;SDS011;41083;52.932;6.674;2022-10-16T08:56:21;1.73;;;0.28;;
55212;SDS011;41083;52.932;6.674;2022-10-16T08:58:47;0.43;;;0.30;;
55212;SDS011;41083;52.932;6.674;2022-10-16T09:01:14;0.63;;;0.40;;
55212;SDS011;41083;52.932;6.674;2022-10-16T09:03:52;1.05;;;0.40;;
55212;SDS011;41083;52.932;6.674;2022-10-16T09:09:14;5.05;;;0.65;;
55212;SDS011;41083;52.932;6.674;2022-10-16T09:12:13;5.97;;;0.65;;
55212;SDS011;41083;52.932;6.674;2022-10-16T09:18:02;1.30;;;0.52;;
55212;SDS011;41083;52.932;6.674;2022-10-16T09:20:42;2.05;;;0.77;;
55212;SDS011;41083;52.932;6.674;2022-10-16T09:23:19;1.50;;;0.40;;
55212;SDS011;41083;52.932;6.674;2022-10-16T09:25:52;3.20;;;0.98;;
55212;SDS011;41083;52.932;6.674;2022-10-16T09:28:19;2.60;;;0.45;;
55212;SDS011;41083;52.932;6.674;2022-10-16T09:30:45;2.72;;;0.65;;
55212;SDS011;41083;52.932;6.674;2022-10-16T09:33:13;1.73;;;0.75;;
55212;SDS011;41083;52.932;6.674;2022-10-16T09:38:20;1.27;;;0.40;;
55212;SDS011;41083;52.932;6.674;2022-10-16T09:40:53;1.20;;;0.43;;
55212;SDS011;41083;52.932;6.674;2022-10-16T09:43:25;2.53;;;0.40;;
55212;SDS011;41083;52.932;6.674;2022-10-16T09:48:44;0.88;;;0.38;;
55212;SDS011;41083;52.932;6.674;2022-10-16T09:51:25;2.65;;;0.30;;
55212;SDS011;41083;52.932;6.674;2022-10-16T09:53:59;4.03;;;0.65;;
55212;SDS011;41083;52.932;6.674;2022-10-16T09:56:32;5.22;;;0.40;;
55212;SDS011;41083;52.932;6.674;2022-10-16T09:59:02;0.55;;;0.28;;
55212;SDS011;41083;52.932;6.674;2022-10-16T10:01:37;1.40;;;0.28;;
55212;SDS011;41083;52.932;6.674;2022-10-16T10:04:07;0.40;;;0.20;;
55212;SDS011;41083;52.932;6.674;2022-10-16T10:11:40;0.75;;;0.32;;
55212;SDS011;41083;52.932;6.674;2022-10-16T10:14:16;1.90;;;0.20;;
55212;SDS011;41083;52.932;6.674;2022-10-16T10:16:45;1.95;;;0.30;;
55212;SDS011;41083;52.932;6.674;2022-10-16T10:19:15;2.15;;;0.43;;
55212;SDS011;41083;52.932;6.674;2022-10-16T10:21:43;0.93;;;0.40;;
55212;SDS011;41083;52.932;6.674;2022-10-16T10:24:10;0.82;;;0.47;;
55212;SDS011;41083;52.932;6.674;2022-10-16T10:26:36;1.50;;;0.45;;
55212;SDS011;41083;52.932;6.674;2022-10-16T10:29:18;4.13;;;0.52;;
55212;SDS011;41083;52.932;6.674;2022-10-16T10:32:08;3.15;;;0.40;;
55212;SDS011;41083;52.932;6.674;2022-10-16T10:43:04;3.70;;;0.55;;
55212;SDS011;41083;52.932;6.674;2022-10-16T10:45:54;1.70;;;0.40;;
55212;SDS011;41083;52.932;6.674;2022-10-16T11:00:00;1.23;;;0.50;;
55212;SDS011;41083;52.932;6.674;2022-10-16T11:02:38;3.03;;;0.68;;
55212;SDS011;41083;52.932;6.674;2022-10-16T11:10:45;2.83;;;0.60;;
55212;SDS011;41083;52.932;6.674;2022-10-16T11:13:27;1.88;;;0.80;;
55212;SDS011;41083;52.932;6.674;2022-10-16T11:16:14;3.25;;;0.50;;
55212;SDS011;41083;52.932;6.674;2022-10-16T11:21:36;3.47;;;0.50;;
55212;SDS011;41083;52.932;6.674;2022-10-16T11:24:20;0.40;;;0.20;;
55212;SDS011;41083;52.932;6.674;2022-10-16T11:26:50;1.65;;;0.50;;
55212;SDS011;41083;52.932;6.674;2022-10-16T11:29:23;0.57;;;0.40;;
55212;SDS011;41083;52.932;6.674;2022-10-16T11:32:05;1.55;;;0.35;;
55212;SDS011;41083;52.932;6.674;2022-10-16T11:34:43;1.45;;;0.47;;
55212;SDS011;41083;52.932;6.674;2022-10-16T11:37:15;1.50;;;0.40;;
55212;SDS011;41083;52.932;6.674;2022-10-16T11:39:45;0.70;;;0.30;;
55212;SDS011;41083;52.932;6.674;2022-10-16T11:47:54;0.98;;;0.30;;
55212;SDS011;41083;52.932;6.674;2022-10-16T11:50:36;3.40;;;0.47;;
55212;SDS011;41083;52.932;6.674;2022-10-16T11:53:15;1.52;;;0.50;;
55212;SDS011;41083;52.932;6.674;2022-10-16T11:55:52;1.77;;;0.60;;
55212;SDS011;41083;52.932;6.674;2022-10-16T12:03:35;2.37;;;0.40;;
55212;SDS011;41083;52.932;6.674;2022-10-16T12:06:25;1.10;;;0.40;;
55212;SDS011;41083;52.932;6.674;2022-10-16T12:08:57;0.70;;;0.30;;
55212;SDS011;41083;52.932;6.674;2022-10-16T12:14:07;2.78;;;0.50;;
55212;SDS011;41083;52.932;6.674;2022-10-16T12:17:01;3.80;;;0.60;;
55212;SDS011;41083;52.932;6.674;2022-10-16T12:19:31;3.33;;;0.68;;
55212;SDS011;41083;52.932;6.674;2022-10-16T12:21:58;0.47;;;0.30;;
55212;SDS011;41083;52.932;6.674;2022-10-16T12:24:35;4.53;;;0.47;;
55212;SDS011;41083;52.932;6.674;2022-10-16T12:27:04;0.40;;;0.30;;
55212;SDS011;41083;52.932;6.674;2022-10-16T12:29:41;1.40;;;0.35;;
55212;SDS011;41083;52.932;6.674;2022-10-16T12:34:57;0.50;;;0.25;;
55212;SDS011;41083;52.932;6.674;2022-10-16T12:37:25;2.22;;;0.57;;
55212;SDS011;41083;52.932;6.674;2022-10-16T12:39:53;4.25;;;0.35;;
55212;SDS011;41083;52.932;6.674;2022-10-16T12:44:58;2.17;;;0.60;;
55212;SDS011;41083;52.932;6.674;2022-10-16T12:49:56;2.75;;;0.40;;
55212;SDS011;41083;52.932;6.674;2022-10-16T12:54:52;1.13;;;0.20;;
55212;SDS011;41083;52.932;6.674;2022-10-16T12:57:27;2.55;;;0.30;;
55212;SDS011;41083;52.932;6.674;2022-10-16T13:00:20;4.25;;;0.38;;
55212;SDS011;41083;52.932;6.674;2022-10-16T13:05:54;1.52;;;0.38;;
55212;SDS011;41083;52.932;6.674;2022-10-16T13:19:47;6.00;;;0.50;;
55212;SDS011;41083;52.932;6.674;2022-10-16T13:22:36;2.03;;;0.52;;
55212;SDS011;41083;52.932;6.674;2022-10-16T13:28:05;2.90;;;0.50;;
55212;SDS011;41083;52.932;6.674;2022-10-16T13:30:43;1.42;;;0.40;;
55212;SDS011;41083;52.932;6.674;2022-10-16T13:35:49;4.03;;;0.17;;
55212;SDS011;41083;52.932;6.674;2022-10-16T13:38:18;2.67;;;0.40;;
55212;SDS011;41083;52.932;6.674;2022-10-16T13:40:50;1.70;;;0.63;;
55212;SDS011;41083;52.932;6.674;2022-10-16T13:43:51;1.38;;;0.52;;
55212;SDS011;41083;52.932;6.674;2022-10-16T13:46:15;2.88;;;0.40;;
55212;SDS011;41083;52.932;6.674;2022-10-16T13:48:58;0.57;;;0.28;;
55212;SDS011;41083;52.932;6.674;2022-10-16T13:51:26;0.40;;;0.20;;
55212;SDS011;41083;52.932;6.674;2022-10-16T13:53:52;4.80;;;0.47;;
55212;SDS011;41083;52.932;6.674;2022-10-16T13:56:21;0.75;;;0.25;;
55212;SDS011;41083;52.932;6.674;2022-10-16T13:59:00;3.58;;;0.30;;
55212;SDS011;41083;52.932;6.674;2022-10-16T14:04:04;2.05;;;0.20;;
55212;SDS011;41083;52.932;6.674;2022-10-16T14:06:32;2.70;;;0.30;;
55212;SDS011;41083;52.932;6.674;2022-10-16T14:09:04;5.50;;;0.73;;
55212;SDS011;41083;52.932;6.674;2022-10-16T14:11:32;3.15;;;0.30;;
55212;SDS011;41083;52.932;6.674;2022-10-16T14:14:03;5.00;;;0.68;;
55212;SDS011;41083;52.932;6.674;2022-10-16T14:16:30;1.85;;;0.38;;
55212;SDS011;41083;52.932;6.674;2022-10-16T14:19:01;1.52;;;0.28;;
55212;SDS011;41083;52.932;6.674;2022-10-16T14:21:31;4.00;;;0.40;;
55212;SDS011;41083;52.932;6.674;2022-10-16T14:23:57;3.85;;;0.30;;
55212;SDS011;41083;52.932;6.674;2022-10-16T14:26:24;6.22;;;0.50;;
55212;SDS011;41083;52.932;6.674;2022-10-16T14:29:12;1.83;;;0.35;;
55212;SDS011;41083;52.932;6.674;2022-10-16T14:31:40;0.20;;;0.10;;
55212;SDS011;41083;52.932;6.674;2022-10-16T14:34:22;0.68;;;0.20;;
55212;SDS011;41083;52.932;6.674;2022-10-16T14:36:49;0.43;;;0.20;;
55212;SDS011;41083;52.932;6.674;2022-10-16T14:39:19;9.02;;;0.68;;
55212;SDS011;41083;52.932;6.674;2022-10-16T14:41:48;2.97;;;0.70;;
55212;SDS011;41083;52.932;6.674;2022-10-16T14:44:16;2.50;;;0.30;;
55212;SDS011;41083;52.932;6.674;2022-10-16T14:46:43;0.95;;;0.30;;
55212;SDS011;41083;52.932;6.674;2022-10-16T14:51:35;1.65;;;0.38;;
55212;SDS011;41083;52.932;6.674;2022-10-16T14:54:01;0.40;;;0.22;;
55212;SDS011;41083;52.932;6.674;2022-10-16T14:56:29;1.15;;;0.30;;
55212;SDS011;41083;52.932;6.674;2022-10-16T14:59:07;5.47;;;0.90;;
55212;SDS011;41083;52.932;6.674;2022-10-16T15:01:42;1.27;;;0.40;;
55212;SDS011;41083;52.932;6.674;2022-10-16T15:04:09;4.07;;;0.30;;
55212;SDS011;41083;52.932;6.674;2022-10-16T15:06:37;2.10;;;0.22;;
55212;SDS011;41083;52.932;6.674;2022-10-16T15:09:03;2.05;;;0.30;;
55212;SDS011;41083;52.932;6.674;2022-10-16T15:11:28;0.82;;;0.20;;
55212;SDS011;41083;52.932;6.674;2022-10-16T15:13:56;0.88;;;0.30;;
55212;SDS011;41083;52.932;6.674;2022-10-16T15:16:22;1.42;;;0.38;;
55212;SDS011;41083;52.932;6.674;2022-10-16T15:18:47;1.25;;;0.32;;
55212;SDS011;41083;52.932;6.674;2022-10-16T15:21:24;4.30;;;0.52;;
55212;SDS011;41083;52.932;6.674;2022-10-16T15:23:53;0.25;;;0.13;;
55212;SDS011;41083;52.932;6.674;2022-10-16T15:26:18;1.23;;;0.30;;
55212;SDS011;41083;52.932;6.674;2022-10-16T15:28:44;6.10;;;0.70;;
55212;SDS011;41083;52.932;6.674;2022-10-16T15:31:09;3.08;;;0.40;;
55212;SDS011;41083;52.932;6.674;2022-10-16T15:33:35;1.60;;;0.50;;
55212;SDS011;41083;52.932;6.674;2022-10-16T15:36:01;11.50;;;0.95;;
55212;SDS011;41083;52.932;6.674;2022-10-16T15:38:27;0.70;;;0.30;;
55212;SDS011;41083;52.932;6.674;2022-10-16T15:40:54;1.75;;;0.38;;
55212;SDS011;41083;52.932;6.674;2022-10-16T15:43:20;5.28;;;0.30;;
55212;SDS011;41083;52.932;6.674;2022-10-16T15:46:03;1.30;;;0.45;;
55212;SDS011;41083;52.932;6.674;2022-10-16T15:48:31;0.73;;;0.43;;
55212;SDS011;41083;52.932;6.674;2022-10-16T15:50:57;1.65;;;0.40;;
55212;SDS011;41083;52.932;6.674;2022-10-16T15:53:24;3.25;;;0.40;;
55212;SDS011;41083;52.932;6.674;2022-10-16T15:55:51;3.13;;;0.70;;
55212;SDS011;41083;52.932;6.674;2022-10-16T15:58:17;1.85;;;0.30;;
55212;SDS011;41083;52.932;6.674;2022-10-16T16:00:42;1.13;;;0.30;;
55212;SDS011;41083;52.932;6.674;2022-10-16T16:03:08;1.25;;;0.30;;
55212;SDS011;41083;52.932;6.674;2022-10-16T16:05:37;2.75;;;0.43;;
55212;SDS011;41083;52.932;6.674;2022-10-16T16:08:03;1.30;;;0.32;;
55212;SDS011;41083;52.932;6.674;2022-10-16T16:10:29;4.70;;;2.58;;
55212;SDS011;41083;52.932;6.674;2022-10-16T16:12:55;2.58;;;0.80;;
55212;SDS011;41083;52.932;6.674;2022-10-16T16:15:21;3.30;;;1.00;;
55212;SDS011;41083;52.932;6.674;2022-10-16T16:17:47;1.90;;;0.70;;
55212;SDS011;41083;52.932;6.674;2022-10-16T16:20:13;1.67;;;0.50;;
55212;SDS011;41083;52.932;6.674;2022-10-16T16:22:39;0.82;;;0.40;;
55212;SDS011;41083;52.932;6.674;2022-10-16T16:25:05;3.22;;;0.70;;
55212;SDS011;41083;52.932;6.674;2022-10-16T16:27:31;3.53;;;0.50;;
55212;SDS011;41083;52.932;6.674;2022-10-16T16:30:00;1.27;;;0.47;;
55212;SDS011;41083;52.932;6.674;2022-10-16T16:32:28;5.85;;;1.38;;
55212;SDS011;41083;52.932;6.674;2022-10-16T16:34:54;4.63;;;2.30;;
55212;SDS011;41083;52.932;6.674;2022-10-16T16:37:19;5.30;;;2.97;;
55212;SDS011;41083;52.932;6.674;2022-10-16T16:39:45;7.80;;;3.95;;
55212;SDS011;41083;52.932;6.674;2022-10-16T16:42:10;3.95;;;2.25;;
55212;SDS011;41083;52.932;6.674;2022-10-16T16:44:36;2.40;;;1.15;;
55212;SDS011;41083;52.932;6.674;2022-10-16T16:47:02;2.35;;;1.05;;
55212;SDS011;41083;52.932;6.674;2022-10-16T16:49:28;2.90;;;0.90;;
55212;SDS011;41083;52.932;6.674;2022-10-16T16:51:54;1.10;;;0.40;;
55212;SDS011;41083;52.932;6.674;2022-10-16T16:54:20;3.95;;;0.60;;